LFBC 172130Z AUTO VRB01KT 9999 -RA FEW032 BKN048 BKN060 07/06 Q1032
LFBD 172130Z AUTO 23004KT CAVOK 07/06 Q1032 NOSIG